Time;durP1;ratioP1;P1;durP2;ratioP2;P2;SDS_P1;SDS_P2;PMS_P1;PMS_P2;Temp;Humidity;BMP_temperature;BMP_pressure;BME280_temperature;BME280_humidity;BME280_pressure;Samples;Min_cycle;Max_cycle;Signal;HPM_P1;HPM_P2
2021/11/30 00:01:29;;;;;;;18.52;10.82;;;2.90;99.90;;;;;;5021918;28;20080;-72
2021/11/30 00:03:55;;;;;;;21.08;11.73;;;2.90;99.90;;;;;;5020134;28;20029;-70
2021/11/30 00:06:21;;;;;;;22.50;11.95;;;2.90;99.90;;;;;;5022061;28;20026;-72
2021/11/30 00:08:48;;;;;;;19.50;11.27;;;2.90;99.90;;;;;;5022629;28;20500;-72
2021/11/30 00:11:14;;;;;;;23.00;10.90;;;3.00;99.90;;;;;;5020655;28;20033;-72
2021/11/30 00:13:41;;;;;;;22.52;11.98;;;2.90;99.90;;;;;;5004166;28;20037;-72
2021/11/30 00:16:08;;;;;;;23.08;12.45;;;3.00;99.90;;;;;;5022688;28;20025;-72
2021/11/30 00:18:34;;;;;;;28.15;12.68;;;3.00;99.90;;;;;;5020331;28;20503;-72
2021/11/30 00:21:06;;;;;;;23.00;12.68;;;3.00;99.90;;;;;;5019849;28;20046;-72
2021/11/30 00:23:33;;;;;;;23.60;11.48;;;3.00;99.90;;;;;;5025978;28;20039;-73
2021/11/30 00:25:58;;;;;;;22.30;12.63;;;3.00;99.90;;;;;;5021017;28;20014;-72
2021/11/30 00:28:24;;;;;;;24.77;12.55;;;3.00;99.90;;;;;;5022406;28;20025;-71
2021/11/30 00:30:50;;;;;;;21.58;12.27;;;3.00;99.90;;;;;;5022565;28;20119;-72
2021/11/30 00:33:16;;;;;;;24.67;11.93;;;3.00;99.90;;;;;;5022614;28;20037;-72
2021/11/30 00:35:43;;;;;;;23.08;12.50;;;3.10;99.90;;;;;;5021456;28;20053;-72
2021/11/30 00:38:13;;;;;;;22.20;11.68;;;3.00;99.90;;;;;;5022032;28;21312;-72
2021/11/30 00:40:44;;;;;;;21.90;11.63;;;3.10;99.90;;;;;;5022912;28;20029;-71
2021/11/30 00:43:18;;;;;;;24.27;12.98;;;3.10;99.90;;;;;;5024314;28;20025;-73
2021/11/30 00:45:59;;;;;;;22.33;12.18;;;3.10;99.90;;;;;;5022598;28;20036;-71
2021/11/30 00:48:31;;;;;;;24.15;13.30;;;3.10;99.90;;;;;;5021331;28;20030;-72
2021/11/30 00:51:03;;;;;;;23.00;13.20;;;3.10;99.90;;;;;;5020925;28;20022;-71
2021/11/30 00:53:28;;;;;;;24.17;13.15;;;3.10;99.90;;;;;;5018539;28;20048;-71
2021/11/30 00:55:55;;;;;;;22.40;13.07;;;3.10;99.90;;;;;;5022961;28;20033;-72
2021/11/30 00:58:21;;;;;;;30.00;13.95;;;3.00;99.90;;;;;;5020343;28;20026;-72
2021/11/30 01:00:46;;;;;;;25.88;13.82;;;3.00;99.90;;;;;;5022342;28;20040;-73
2021/11/30 01:03:12;;;;;;;29.83;14.77;;;3.00;99.90;;;;;;5004959;28;20105;-71
2021/11/30 01:05:38;;;;;;;25.73;13.57;;;3.10;99.90;;;;;;5021824;28;20037;-72
2021/11/30 01:08:06;;;;;;;25.75;14.00;;;3.10;99.90;;;;;;5022191;28;20045;-72
2021/11/30 01:10:32;;;;;;;24.98;13.15;;;3.10;99.90;;;;;;5019691;28;20032;-72
2021/11/30 01:12:59;;;;;;;24.83;13.05;;;3.10;99.90;;;;;;5022656;28;20029;-72
2021/11/30 01:15:25;;;;;;;29.55;14.77;;;3.10;99.90;;;;;;5021441;28;20034;-72
2021/11/30 01:17:51;;;;;;;25.63;13.07;;;3.20;99.90;;;;;;5021519;28;20038;-72
2021/11/30 01:20:18;;;;;;;25.92;13.73;;;3.20;99.90;;;;;;5017813;28;20030;-72
2021/11/30 01:22:44;;;;;;;24.27;13.32;;;3.20;99.90;;;;;;5020876;28;20036;-72
2021/11/30 01:25:11;;;;;;;26.15;12.85;;;3.20;99.90;;;;;;5021496;28;20060;-72
2021/11/30 01:27:37;;;;;;;24.08;13.63;;;3.20;99.90;;;;;;5016215;28;20022;-72
2021/11/30 01:30:06;;;;;;;26.05;14.30;;;3.20;99.90;;;;;;5017385;28;20972;-72
2021/11/30 01:32:32;;;;;;;24.75;13.48;;;3.20;99.90;;;;;;5020280;28;20030;-72
2021/11/30 01:34:58;;;;;;;28.05;13.93;;;3.30;99.90;;;;;;5020968;28;20025;-72
2021/11/30 01:37:24;;;;;;;24.42;13.07;;;3.30;99.90;;;;;;5020770;28;20079;-72
2021/11/30 01:39:50;;;;;;;27.92;15.50;;;3.30;99.90;;;;;;5018528;28;20038;-72
2021/11/30 01:42:16;;;;;;;25.42;13.93;;;3.30;99.90;;;;;;5016487;28;20025;-72
2021/11/30 01:49:57;;;;;;;22.60;13.27;;;3.40;99.90;;;;;;5000548;28;20488;-72
2021/11/30 01:52:24;;;;;;;25.27;13.07;;;3.50;99.90;;;;;;5020030;28;20029;-72
2021/11/30 01:54:51;;;;;;;27.67;14.07;;;3.50;99.90;;;;;;5020917;28;20030;-72
2021/11/30 01:57:23;;;;;;;25.98;13.20;;;3.50;99.90;;;;;;5000664;28;20476;-72
2021/11/30 01:59:50;;;;;;;24.63;13.20;;;3.60;99.90;;;;;;5018563;28;20030;-72
2021/11/30 02:02:17;;;;;;;25.45;13.82;;;3.60;99.90;;;;;;5017977;28;20083;-71
2021/11/30 02:04:44;;;;;;;28.33;14.52;;;3.60;99.90;;;;;;5018698;28;20041;-72
2021/11/30 02:07:10;;;;;;;26.70;14.18;;;3.50;99.90;;;;;;5019807;28;20109;-71
2021/11/30 02:09:38;;;;;;;28.73;14.93;;;3.50;99.90;;;;;;5022046;28;20029;-72
2021/11/30 02:12:04;;;;;;;27.15;14.85;;;3.50;99.90;;;;;;5020734;28;20034;-72
2021/11/30 02:14:32;;;;;;;26.40;14.43;;;3.40;99.90;;;;;;5020727;28;20044;-72
2021/11/30 02:16:59;;;;;;;26.92;14.55;;;3.40;99.90;;;;;;5018929;28;20029;-71
2021/11/30 02:19:25;;;;;;;27.52;15.13;;;3.40;99.90;;;;;;5022015;28;20029;-71
2021/11/30 02:21:52;;;;;;;25.85;15.05;;;3.30;99.90;;;;;;5018134;28;20495;-72
2021/11/30 02:24:18;;;;;;;23.75;14.43;;;3.30;99.90;;;;;;5001365;28;20034;-71
2021/11/30 02:26:44;;;;;;;23.15;14.25;;;3.30;99.90;;;;;;5021069;28;20041;-71
2021/11/30 02:29:11;;;;;;;22.80;13.55;;;3.30;99.90;;;;;;5019744;28;20033;-72
2021/11/30 02:31:44;;;;;;;23.40;13.75;;;3.30;99.90;;;;;;5000737;28;20102;-72
2021/11/30 02:34:10;;;;;;;23.42;13.98;;;3.30;99.90;;;;;;5019951;28;20086;-71
2021/11/30 02:39:14;;;;;;;23.98;14.02;;;3.30;99.90;;;;;;5019297;28;20633;-71
2021/11/30 02:41:41;;;;;;;21.15;13.27;;;3.30;99.90;;;;;;5019447;28;20037;-72
2021/11/30 02:44:10;;;;;;;22.58;13.13;;;3.30;99.90;;;;;;5018571;28;20506;-72
2021/11/30 02:46:38;;;;;;;20.27;12.27;;;3.30;99.90;;;;;;5018662;28;20029;-71
2021/11/30 02:49:07;;;;;;;23.02;12.60;;;3.30;99.90;;;;;;5018689;28;20025;-72
2021/11/30 02:51:34;;;;;;;19.65;10.80;;;3.30;99.90;;;;;;5017930;28;20045;-72
2021/11/30 02:54:03;;;;;;;17.00;9.57;;;3.30;99.90;;;;;;5020203;28;20373;-71
2021/11/30 02:56:29;;;;;;;18.52;10.55;;;3.30;99.90;;;;;;5019718;28;20056;-72
2021/11/30 02:58:56;;;;;;;18.58;9.82;;;3.40;99.90;;;;;;5017684;28;20515;-71
2021/11/30 03:01:22;;;;;;;18.10;10.45;;;3.30;99.90;;;;;;5017390;28;20032;-72
2021/11/30 03:03:49;;;;;;;20.92;10.50;;;3.40;99.90;;;;;;5017128;28;20065;-72
2021/11/30 03:06:14;;;;;;;15.82;9.52;;;3.40;99.90;;;;;;5018320;28;20037;-72
2021/11/30 03:08:42;;;;;;;17.35;8.27;;;3.40;99.90;;;;;;5019888;28;20033;-72
2021/11/30 03:11:09;;;;;;;13.38;9.38;;;3.40;99.90;;;;;;5023597;28;20061;-71
2021/11/30 03:13:38;;;;;;;14.82;9.05;;;3.40;99.90;;;;;;5027598;28;20034;-71
2021/11/30 03:16:05;;;;;;;14.98;8.88;;;3.50;99.90;;;;;;5008200;28;20033;-71
2021/11/30 03:18:34;;;;;;;16.73;8.88;;;3.50;99.90;;;;;;5010982;28;20059;-72
2021/11/30 03:21:00;;;;;;;13.55;8.38;;;3.40;99.90;;;;;;5022374;28;20103;-71
2021/11/30 03:23:26;;;;;;;15.05;9.60;;;3.50;99.90;;;;;;5026213;28;20037;-72
2021/11/30 03:25:52;;;;;;;14.90;8.70;;;3.40;99.90;;;;;;5023770;28;20033;-71
2021/11/30 03:28:18;;;;;;;16.58;9.32;;;3.50;99.90;;;;;;5027437;28;20092;-72
2021/11/30 03:30:53;;;;;;;17.20;10.25;;;3.40;99.90;;;;;;5021748;28;20040;-72
2021/11/30 03:34:02;;;;;;;15.77;8.48;;;3.40;99.90;;;;;;5025177;28;20021;-72
2021/11/30 03:36:08;;;;;;;15.60;9.57;;;3.50;99.90;;;;;;5017060;28;20045;-71
2021/11/30 03:38:34;;;;;;;15.68;9.50;;;3.50;99.90;;;;;;5024711;28;20500;-72
2021/11/30 03:41:00;;;;;;;14.27;9.65;;;3.40;99.90;;;;;;5020434;28;20083;-71
2021/11/30 03:43:25;;;;;;;16.60;10.10;;;3.40;99.90;;;;;;5026938;28;20017;-71
2021/11/30 03:45:51;;;;;;;15.15;9.60;;;3.40;99.90;;;;;;5023455;28;20045;-71
2021/11/30 03:48:17;;;;;;;16.60;9.63;;;3.40;99.90;;;;;;5024316;28;20099;-72
2021/11/30 03:50:43;;;;;;;16.60;10.43;;;3.40;99.90;;;;;;5024899;28;20402;-71
2021/11/30 03:53:09;;;;;;;14.80;9.98;;;3.30;99.90;;;;;;5024759;28;20466;-71
2021/11/30 03:55:34;;;;;;;14.52;9.82;;;3.40;99.90;;;;;;5027592;28;20079;-72
2021/11/30 03:58:00;;;;;;;19.00;10.50;;;3.40;99.90;;;;;;5024982;28;20048;-72
2021/11/30 04:00:26;;;;;;;14.30;9.40;;;3.40;99.90;;;;;;5024246;28;20080;-71
2021/11/30 04:02:52;;;;;;;13.90;9.73;;;3.40;99.90;;;;;;5026694;28;20037;-72
2021/11/30 04:05:18;;;;;;;11.90;8.88;;;3.40;99.90;;;;;;5023380;28;20144;-72
2021/11/30 04:07:43;;;;;;;10.95;8.52;;;3.30;99.90;;;;;;5024553;28;20022;-72
2021/11/30 04:10:09;;;;;;;13.00;8.80;;;3.40;99.90;;;;;;5025950;28;20030;-71
2021/11/30 04:12:35;;;;;;;12.68;8.98;;;3.40;99.90;;;;;;5024965;28;20026;-72
2021/11/30 04:15:01;;;;;;;15.25;8.00;;;3.40;99.90;;;;;;5024379;28;20042;-71
2021/11/30 04:17:27;;;;;;;12.05;7.45;;;3.40;99.90;;;;;;5022384;28;20022;-73
2021/11/30 04:19:52;;;;;;;12.50;8.43;;;3.40;99.90;;;;;;5023836;28;20033;-72
2021/11/30 04:22:18;;;;;;;11.88;8.32;;;3.40;99.90;;;;;;5021398;28;21616;-71
2021/11/30 04:24:44;;;;;;;12.77;8.38;;;3.30;99.90;;;;;;5020795;28;20044;-72
2021/11/30 04:27:10;;;;;;;10.90;7.80;;;3.30;99.90;;;;;;5019233;28;20083;-72
2021/11/30 04:29:38;;;;;;;11.90;7.80;;;3.30;99.90;;;;;;5021057;28;20087;-72
2021/11/30 04:32:05;;;;;;;11.63;8.13;;;3.30;99.90;;;;;;5021554;28;20032;-72
2021/11/30 04:34:31;;;;;;;10.48;7.38;;;3.30;99.90;;;;;;5020874;28;20083;-72
2021/11/30 04:36:57;;;;;;;13.43;8.00;;;3.40;99.90;;;;;;5017384;28;20124;-72
2021/11/30 04:39:22;;;;;;;12.38;8.10;;;3.40;99.90;;;;;;5021282;28;20539;-72
2021/11/30 04:41:48;;;;;;;11.88;8.52;;;3.40;99.90;;;;;;5003899;28;20030;-71
2021/11/30 04:44:16;;;;;;;13.77;8.55;;;3.40;99.90;;;;;;5020277;28;20084;-72
2021/11/30 04:49:28;;;;;;;12.18;8.57;;;3.50;99.90;;;;;;5018406;28;20029;-72
2021/11/30 04:51:54;;;;;;;12.45;9.07;;;3.50;99.90;;;;;;5018508;28;20100;-72
2021/11/30 04:54:22;;;;;;;11.50;8.35;;;3.50;99.90;;;;;;5018953;28;20543;-72
2021/11/30 04:56:48;;;;;;;11.57;9.15;;;3.50;99.90;;;;;;5019991;28;20107;-72
2021/11/30 04:59:14;;;;;;;15.80;9.68;;;3.50;99.90;;;;;;5019936;28;20030;-71
2021/11/30 05:01:40;;;;;;;16.23;9.45;;;3.50;99.90;;;;;;5019401;28;20116;-71
2021/11/30 05:04:05;;;;;;;12.68;9.23;;;3.60;99.90;;;;;;5019570;28;20056;-72
2021/11/30 05:06:31;;;;;;;13.43;9.50;;;3.60;99.90;;;;;;5018382;28;20109;-73
2021/11/30 05:09:01;;;;;;;15.10;10.15;;;3.60;99.90;;;;;;5005317;28;20116;-71
2021/11/30 05:11:28;;;;;;;18.40;9.57;;;3.60;99.90;;;;;;5020204;28;20091;-72
2021/11/30 05:13:54;;;;;;;12.65;9.75;;;3.60;99.90;;;;;;5025157;28;20330;-71
2021/11/30 05:16:19;;;;;;;12.13;8.82;;;3.70;99.90;;;;;;5005714;28;20030;-72
2021/11/30 05:18:45;;;;;;;13.65;9.60;;;3.70;99.90;;;;;;5003119;28;20029;-72
2021/11/30 05:21:11;;;;;;;14.98;9.90;;;3.70;99.90;;;;;;5020712;28;20576;-72
2021/11/30 05:23:40;;;;;;;13.80;9.75;;;3.70;99.90;;;;;;5002965;28;20088;-72
2021/11/30 05:26:06;;;;;;;14.30;10.20;;;3.70;99.90;;;;;;5021237;28;20065;-72
2021/11/30 05:28:34;;;;;;;13.50;10.02;;;3.80;99.90;;;;;;5022392;28;20021;-72
2021/11/30 05:31:02;;;;;;;14.05;10.25;;;3.80;99.90;;;;;;5018890;28;20027;-71
2021/11/30 05:33:28;;;;;;;13.77;9.95;;;3.80;99.90;;;;;;5019980;28;20037;-71
2021/11/30 05:35:55;;;;;;;15.75;10.38;;;3.80;99.90;;;;;;5018689;28;20021;-72
2021/11/30 05:38:21;;;;;;;12.30;9.48;;;3.80;99.90;;;;;;5022495;28;20492;-72
2021/11/30 05:40:47;;;;;;;13.25;10.13;;;3.90;99.90;;;;;;5019492;28;20026;-72
2021/11/30 05:43:13;;;;;;;13.90;10.43;;;3.90;99.90;;;;;;5022928;28;20521;-72
2021/11/30 05:45:39;;;;;;;12.57;9.32;;;4.00;99.90;;;;;;5019014;28;20041;-71
2021/11/30 05:48:06;;;;;;;13.70;10.68;;;4.00;99.90;;;;;;5016624;28;20061;-72
2021/11/30 05:50:32;;;;;;;16.88;10.90;;;4.00;99.90;;;;;;5024815;28;20578;-72
2021/11/30 05:52:59;;;;;;;14.63;11.05;;;4.10;99.90;;;;;;5024878;28;20459;-72
2021/11/30 05:55:24;;;;;;;13.27;10.10;;;4.00;99.90;;;;;;5020613;28;20108;-71
2021/11/30 05:57:51;;;;;;;15.10;10.60;;;4.10;99.90;;;;;;5020770;28;20065;-72
2021/11/30 06:00:17;;;;;;;17.88;10.95;;;4.10;99.90;;;;;;5018819;28;20107;-71
2021/11/30 06:05:19;;;;;;;15.65;10.82;;;4.20;99.90;;;;;;5019041;28;20107;-71
2021/11/30 06:07:45;;;;;;;13.68;10.65;;;4.20;99.90;;;;;;5019418;28;20477;-71
2021/11/30 06:10:11;;;;;;;15.02;10.57;;;4.20;99.90;;;;;;5018473;28;20974;-72
2021/11/30 06:12:37;;;;;;;17.10;11.00;;;4.20;99.90;;;;;;5019048;28;20033;-72
2021/11/30 06:15:03;;;;;;;16.67;11.27;;;4.30;99.90;;;;;;5021627;28;20053;-72
2021/11/30 06:17:29;;;;;;;15.98;10.60;;;4.40;99.90;;;;;;5018541;28;20091;-73
2021/11/30 06:19:55;;;;;;;13.90;9.90;;;4.40;99.90;;;;;;5020873;28;20033;-72
2021/11/30 06:22:20;;;;;;;13.82;9.68;;;4.40;99.90;;;;;;5019794;28;20030;-71
2021/11/30 06:24:46;;;;;;;14.85;9.98;;;4.40;99.90;;;;;;5018886;28;20479;-71
2021/11/30 06:27:12;;;;;;;13.20;9.27;;;4.40;99.90;;;;;;5020335;28;20025;-73
2021/11/30 06:29:38;;;;;;;12.05;8.48;;;4.40;99.90;;;;;;5001041;28;20037;-71
2021/11/30 06:32:04;;;;;;;14.60;9.23;;;4.50;99.90;;;;;;5017875;28;20034;-71
2021/11/30 06:34:33;;;;;;;14.20;8.88;;;4.50;99.90;;;;;;5019379;28;20035;-71
2021/11/30 06:37:06;;;;;;;12.80;8.40;;;4.60;99.90;;;;;;5018049;28;20026;-71
2021/11/30 06:39:33;;;;;;;12.52;8.20;;;4.60;99.90;;;;;;5015552;28;20037;-72
2021/11/30 06:41:58;;;;;;;11.88;8.23;;;4.70;99.90;;;;;;5014778;28;20139;-71
2021/11/30 06:44:24;;;;;;;14.43;8.35;;;4.70;99.90;;;;;;5012260;28;20112;-71
2021/11/30 06:46:50;;;;;;;14.40;8.77;;;4.80;99.90;;;;;;5018426;28;20498;-72
2021/11/30 06:49:16;;;;;;;12.18;7.80;;;4.80;99.90;;;;;;5017833;28;20079;-72
2021/11/30 06:51:42;;;;;;;11.07;7.15;;;4.80;99.90;;;;;;5021487;28;20431;-70
2021/11/30 06:54:07;;;;;;;15.15;8.20;;;4.80;99.90;;;;;;5019011;28;20037;-71
2021/11/30 06:56:33;;;;;;;15.20;7.63;;;4.80;99.90;;;;;;5001656;28;20492;-71
2021/11/30 06:58:59;;;;;;;13.55;8.23;;;4.90;99.90;;;;;;5021091;28;20066;-72
2021/11/30 07:01:27;;;;;;;13.27;7.53;;;4.90;99.90;;;;;;5018732;28;20053;-72
2021/11/30 07:03:53;;;;;;;16.70;7.40;;;4.90;99.90;;;;;;5018790;28;20065;-72
2021/11/30 07:14:06;;;;;;;11.93;6.93;;;5.10;99.90;;;;;;5020150;28;20112;-73
2021/11/30 07:16:32;;;;;;;13.52;6.65;;;5.10;99.90;;;;;;5002918;28;20033;-71
2021/11/30 07:18:59;;;;;;;13.13;6.65;;;5.20;99.90;;;;;;5017265;28;20025;-71
2021/11/30 07:21:26;;;;;;;10.63;6.03;;;5.30;99.90;;;;;;5023152;28;20038;-75
2021/11/30 07:23:53;;;;;;;14.52;6.45;;;5.30;99.90;;;;;;5020149;28;20040;-71
2021/11/30 07:26:19;;;;;;;14.77;5.65;;;5.40;99.90;;;;;;5019446;28;20065;-73
2021/11/30 07:28:45;;;;;;;12.68;5.43;;;5.40;99.90;;;;;;5019251;28;20517;-73
2021/11/30 07:31:13;;;;;;;10.93;5.18;;;5.50;99.90;;;;;;5019539;28;20026;-73
2021/11/30 07:33:43;;;;;;;13.48;4.80;;;5.60;99.90;;;;;;5019030;28;20432;-72
2021/11/30 07:36:11;;;;;;;14.80;3.92;;;5.60;99.90;;;;;;5019399;28;20097;-72
2021/11/30 07:38:38;;;;;;;16.10;4.43;;;5.70;99.90;;;;;;5019281;28;20050;-72
2021/11/30 07:41:06;;;;;;;14.57;3.92;;;5.90;99.90;;;;;;5016034;28;20515;-72
2021/11/30 07:43:33;;;;;;;13.35;3.38;;;5.90;99.90;;;;;;5015432;28;20037;-73
2021/11/30 07:45:59;;;;;;;13.60;2.92;;;5.90;99.90;;;;;;4982254;28;20053;-73
2021/11/30 07:48:27;;;;;;;17.75;3.03;;;5.90;99.90;;;;;;5018815;28;20026;-73
2021/11/30 07:50:52;;;;;;;15.32;2.42;;;5.80;99.90;;;;;;5016561;28;20028;-72
2021/11/30 07:53:19;;;;;;;16.02;2.83;;;5.90;99.90;;;;;;5017658;28;20022;-73
2021/11/30 07:55:44;;;;;;;20.23;3.20;;;5.80;99.90;;;;;;5019576;28;20030;-73
2021/11/30 07:58:11;;;;;;;17.52;2.60;;;5.80;99.90;;;;;;5024424;28;20044;-73
2021/11/30 08:00:37;;;;;;;14.15;2.10;;;5.90;99.90;;;;;;5020619;28;20410;-73
2021/11/30 08:03:03;;;;;;;14.23;2.03;;;5.90;99.90;;;;;;5026100;28;20029;-73
2021/11/30 08:05:30;;;;;;;18.33;2.42;;;5.90;99.90;;;;;;5002603;28;20029;-72
2021/11/30 08:07:55;;;;;;;21.38;2.67;;;5.90;99.90;;;;;;5020706;28;20088;-73
2021/11/30 08:10:23;;;;;;;17.73;2.58;;;5.90;99.90;;;;;;5021833;28;20476;-72
2021/11/30 08:12:49;;;;;;;17.60;2.42;;;6.00;99.90;;;;;;5022145;28;20636;-72
2021/11/30 08:15:16;;;;;;;16.65;2.25;;;6.00;99.90;;;;;;5019123;28;20164;-72
2021/11/30 08:17:42;;;;;;;18.05;2.72;;;5.90;99.90;;;;;;5023071;28;20143;-73
2021/11/30 08:20:09;;;;;;;17.45;2.50;;;6.00;99.90;;;;;;5023435;28;20055;-73
2021/11/30 08:22:36;;;;;;;16.60;2.22;;;6.00;99.90;;;;;;5018437;28;20111;-72
2021/11/30 08:25:04;;;;;;;20.58;3.05;;;6.00;99.90;;;;;;5019797;28;20495;-71
2021/11/30 08:27:30;;;;;;;17.55;2.67;;;6.00;99.90;;;;;;5020034;28;20426;-72
2021/11/30 08:29:56;;;;;;;20.42;3.42;;;6.00;99.90;;;;;;5019603;28;20021;-71
2021/11/30 08:32:23;;;;;;;21.20;2.67;;;6.00;99.90;;;;;;5021125;28;20064;-73
2021/11/30 08:34:51;;;;;;;19.15;2.40;;;6.00;99.90;;;;;;5017355;28;20037;-73
2021/11/30 08:37:17;;;;;;;15.48;2.72;;;6.00;99.90;;;;;;5022509;28;20025;-72
2021/11/30 08:39:43;;;;;;;15.45;3.00;;;6.10;99.90;;;;;;5023903;28;20030;-73
2021/11/30 08:42:11;;;;;;;24.60;4.35;;;6.10;99.90;;;;;;5021938;28;20036;-73
2021/11/30 08:44:37;;;;;;;18.17;2.53;;;6.10;99.90;;;;;;5002045;28;20156;-73
2021/11/30 08:47:06;;;;;;;20.65;3.10;;;6.10;99.90;;;;;;5018689;28;20455;-73
2021/11/30 08:49:32;;;;;;;25.73;3.00;;;6.20;99.90;;;;;;5012621;28;20029;-75
2021/11/30 08:51:59;;;;;;;20.75;2.95;;;6.20;99.90;;;;;;5016339;28;20049;-73
2021/11/30 08:54:27;;;;;;;23.42;3.55;;;6.20;99.90;;;;;;5022090;28;20093;-74
2021/11/30 08:56:53;;;;;;;21.02;3.08;;;6.20;99.90;;;;;;5020882;28;20101;-73
2021/11/30 08:59:19;;;;;;;24.25;3.05;;;6.20;99.90;;;;;;5011975;28;20026;-74
2021/11/30 09:01:46;;;;;;;23.23;2.95;;;6.20;99.90;;;;;;5015671;28;20034;-74
2021/11/30 09:04:12;;;;;;;19.10;2.75;;;6.20;99.90;;;;;;5012962;28;20038;-73
2021/11/30 09:06:38;;;;;;;19.05;4.15;;;6.30;99.90;;;;;;5012447;28;20026;-73
2021/11/30 09:09:07;;;;;;;21.50;3.47;;;6.30;99.90;;;;;;5013019;28;20030;-72
2021/11/30 09:11:34;;;;;;;24.05;3.50;;;6.20;99.90;;;;;;4996236;28;20034;-73
2021/11/30 09:14:00;;;;;;;23.83;3.47;;;6.30;99.90;;;;;;5014640;28;20026;-73
2021/11/30 09:16:25;;;;;;;18.13;3.15;;;6.20;99.90;;;;;;5015455;28;20029;-73
2021/11/30 09:18:52;;;;;;;29.30;4.90;;;6.20;99.90;;;;;;4996620;28;20075;-71
2021/11/30 09:21:18;;;;;;;23.38;2.72;;;6.20;99.90;;;;;;5012270;28;20034;-72
2021/11/30 09:23:45;;;;;;;23.98;3.95;;;6.20;99.90;;;;;;5015016;28;20044;-74
2021/11/30 09:26:12;;;;;;;20.42;2.80;;;6.20;99.90;;;;;;5003114;28;20164;-72
2021/11/30 09:28:38;;;;;;;23.02;3.00;;;6.20;99.90;;;;;;5015804;28;20034;-73
2021/11/30 09:31:04;;;;;;;20.50;2.88;;;6.20;99.90;;;;;;4980228;28;20531;-74
2021/11/30 09:33:31;;;;;;;17.10;3.00;;;6.20;99.90;;;;;;5020833;28;20703;-74
2021/11/30 09:35:56;;;;;;;16.15;2.88;;;6.20;99.90;;;;;;5014216;28;20028;-73
2021/11/30 09:38:23;;;;;;;18.52;3.13;;;6.20;99.90;;;;;;5014767;28;20088;-74
2021/11/30 09:40:54;;;;;;;26.15;4.38;;;6.20;99.90;;;;;;5020690;28;20384;-73
2021/11/30 09:43:20;;;;;;;22.77;2.60;;;6.20;99.90;;;;;;5020204;28;20052;-73
2021/11/30 09:45:48;;;;;;;24.08;3.13;;;6.20;99.90;;;;;;5021337;28;20046;-74
2021/11/30 09:48:14;;;;;;;12.10;2.00;;;6.20;99.90;;;;;;5023936;28;20025;-73
2021/11/30 09:50:42;;;;;;;21.70;3.15;;;6.30;99.90;;;;;;5023355;28;20113;-72
2021/11/30 09:53:08;;;;;;;18.67;2.97;;;6.30;99.90;;;;;;5017296;28;20029;-71
2021/11/30 09:55:36;;;;;;;15.32;2.65;;;6.30;99.90;;;;;;5022078;28;20037;-71
2021/11/30 09:58:03;;;;;;;14.70;2.63;;;6.30;99.90;;;;;;5018575;28;20594;-72
2021/11/30 10:00:30;;;;;;;21.50;2.83;;;6.30;99.90;;;;;;5017966;28;20107;-74
2021/11/30 10:02:59;;;;;;;24.13;3.15;;;6.40;99.90;;;;;;5019555;28;20104;-71
2021/11/30 10:05:25;;;;;;;20.17;2.80;;;6.30;99.90;;;;;;5020854;28;20057;-72
2021/11/30 10:07:53;;;;;;;19.27;3.15;;;6.40;99.90;;;;;;5011697;28;20068;-72
2021/11/30 10:10:30;;;;;;;20.85;2.70;;;6.40;99.90;;;;;;5016727;28;20464;-72
2021/11/30 10:13:05;;;;;;;21.52;3.42;;;6.40;99.90;;;;;;5011221;28;20041;-72
2021/11/30 10:16:02;;;;;;;23.92;2.92;;;6.40;99.90;;;;;;5017865;28;20034;-72
2021/11/30 10:18:40;;;;;;;18.67;3.22;;;6.50;99.90;;;;;;5018623;28;20563;-71
2021/11/30 10:21:27;;;;;;;16.58;2.97;;;6.50;99.90;;;;;;5021102;28;20037;-72
2021/11/30 10:24:07;;;;;;;18.13;3.15;;;6.60;99.90;;;;;;4936430;29;20052;-72
2021/11/30 10:26:41;;;;;;;16.38;3.13;;;6.70;99.90;;;;;;4941407;29;20098;-72
2021/11/30 10:29:15;;;;;;;32.83;4.15;;;6.70;99.90;;;;;;4947518;29;20041;-71
2021/11/30 10:31:44;;;;;;;28.33;3.75;;;6.70;99.90;;;;;;4952686;29;20027;-72
2021/11/30 10:34:13;;;;;;;19.80;3.92;;;6.60;99.90;;;;;;4945463;29;20095;-71
2021/11/30 10:36:49;;;;;;;30.45;4.80;;;6.60;99.90;;;;;;4941413;29;20047;-72
2021/11/30 10:39:30;;;;;;;19.52;2.72;;;6.70;99.90;;;;;;4918046;29;20032;-72
2021/11/30 10:42:18;;;;;;;21.13;3.50;;;6.70;99.90;;;;;;4939852;29;20632;-72
2021/11/30 10:44:53;;;;;;;23.05;3.00;;;6.70;99.90;;;;;;4938965;29;20552;-72
2021/11/30 10:47:24;;;;;;;23.38;4.07;;;6.60;99.90;;;;;;4934210;29;20024;-71
2021/11/30 10:49:51;;;;;;;32.15;4.05;;;6.60;99.90;;;;;;4934360;29;20534;-71
2021/11/30 10:52:20;;;;;;;23.58;3.80;;;6.70;99.90;;;;;;4942658;29;20103;-72
2021/11/30 10:54:46;;;;;;;17.88;2.95;;;6.70;99.90;;;;;;4938690;29;20200;-72
2021/11/30 10:57:12;;;;;;;21.88;3.88;;;6.80;99.90;;;;;;4927291;29;20072;-71
2021/11/30 10:59:37;;;;;;;33.42;4.38;;;6.90;99.90;;;;;;4939518;29;20043;-71
2021/11/30 11:02:03;;;;;;;21.65;4.60;;;6.90;99.90;;;;;;5013243;28;20033;-71
2021/11/30 11:04:32;;;;;;;20.20;3.75;;;6.90;99.90;;;;;;4996727;28;20041;-71
2021/11/30 11:07:07;;;;;;;18.10;3.35;;;6.90;99.90;;;;;;5016842;28;20030;-72
2021/11/30 11:09:51;;;;;;;34.67;3.85;;;6.80;99.90;;;;;;5016465;28;20695;-72
2021/11/30 11:12:27;;;;;;;19.30;3.88;;;6.70;99.90;;;;;;5013091;28;20057;-72
2021/11/30 11:14:55;;;;;;;22.58;3.88;;;6.60;99.90;;;;;;5022336;28;20521;-71
2021/11/30 11:17:29;;;;;;;19.45;3.78;;;6.50;99.90;;;;;;5012847;28;20038;-73
2021/11/30 11:19:55;;;;;;;33.20;4.25;;;6.50;99.90;;;;;;5015091;28;20022;-74
2021/11/30 11:22:23;;;;;;;31.60;4.88;;;6.50;99.90;;;;;;5020017;28;20044;-73
2021/11/30 11:24:51;;;;;;;22.23;4.43;;;6.50;99.90;;;;;;5018512;28;20120;-73
2021/11/30 11:27:27;;;;;;;25.65;4.93;;;6.50;99.90;;;;;;5020133;28;20502;-74
2021/11/30 11:29:53;;;;;;;18.40;3.03;;;6.50;99.90;;;;;;5015801;28;20032;-74
2021/11/30 11:32:19;;;;;;;26.58;4.72;;;6.60;99.90;;;;;;5018398;28;20473;-73
2021/11/30 11:34:46;;;;;;;22.25;3.63;;;6.60;99.90;;;;;;5015354;28;20108;-74
2021/11/30 11:37:12;;;;;;;23.70;3.85;;;6.60;99.90;;;;;;5018750;28;20037;-73
2021/11/30 11:39:39;;;;;;;23.60;3.63;;;6.60;99.90;;;;;;5029892;28;20039;-73
2021/11/30 11:42:10;;;;;;;23.48;3.63;;;6.60;99.90;;;;;;5021655;28;20101;-72
2021/11/30 11:44:37;;;;;;;24.10;3.63;;;6.50;99.90;;;;;;5023740;28;20026;-73
2021/11/30 11:47:16;;;;;;;15.18;2.90;;;6.60;99.90;;;;;;5020590;28;20098;-74
2021/11/30 11:49:48;;;;;;;18.38;3.35;;;6.50;99.90;;;;;;5020782;28;20610;-72
2021/11/30 11:52:19;;;;;;;28.50;3.17;;;6.60;99.90;;;;;;5020081;28;20056;-72
2021/11/30 11:55:06;;;;;;;13.20;3.05;;;6.60;99.90;;;;;;5020657;28;20022;-74
2021/11/30 11:57:34;;;;;;;24.73;3.75;;;6.60;99.90;;;;;;5023450;28;20479;-73
2021/11/30 12:00:25;;;;;;;14.30;3.13;;;6.70;99.90;;;;;;5017481;28;20028;-72
2021/11/30 12:03:00;;;;;;;18.17;2.63;;;6.60;99.90;;;;;;5023723;28;20033;-74
2021/11/30 12:05:39;;;;;;;25.52;3.97;;;6.60;99.90;;;;;;5016428;28;20399;-74
2021/11/30 12:08:15;;;;;;;20.65;3.88;;;6.70;99.90;;;;;;5014502;28;20379;-74
2021/11/30 12:10:41;;;;;;;18.35;2.50;;;6.70;99.90;;;;;;5015321;28;20034;-73
2021/11/30 12:13:06;;;;;;;17.55;3.28;;;6.70;99.90;;;;;;5016977;28;20089;-74
2021/11/30 12:15:49;;;;;;;24.95;4.75;;;6.70;99.90;;;;;;5022129;28;20036;-73
2021/11/30 12:18:40;;;;;;;16.42;3.08;;;6.80;99.90;;;;;;5015895;28;20025;-74
2021/11/30 12:21:10;;;;;;;13.20;3.05;;;6.70;99.90;;;;;;5015286;28;20034;-74
2021/11/30 12:23:37;;;;;;;20.88;3.10;;;6.80;99.90;;;;;;5015582;28;20113;-73
2021/11/30 12:26:04;;;;;;;15.75;2.70;;;6.70;99.90;;;;;;4996342;28;20155;-74
2021/11/30 12:28:33;;;;;;;14.95;2.20;;;6.70;99.90;;;;;;5018411;28;20025;-76
2021/11/30 12:30:59;;;;;;;15.40;3.38;;;6.70;99.90;;;;;;5018507;28;20049;-73
2021/11/30 12:33:31;;;;;;;23.13;3.78;;;6.70;99.90;;;;;;5028948;28;20025;-74
2021/11/30 12:36:07;;;;;;;18.67;3.08;;;6.60;99.90;;;;;;5023485;28;20384;-72
2021/11/30 12:38:40;;;;;;;23.30;3.55;;;6.50;99.90;;;;;;5018186;28;20030;-74
2021/11/30 12:41:24;;;;;;;22.92;3.42;;;6.50;99.90;;;;;;5006004;28;20033;-73
2021/11/30 12:44:06;;;;;;;14.43;2.60;;;6.50;99.90;;;;;;5012476;28;20033;-73
2021/11/30 12:46:42;;;;;;;17.02;2.70;;;6.50;99.90;;;;;;5002069;28;20113;-73
2021/11/30 12:49:34;;;;;;;12.32;2.55;;;6.60;99.90;;;;;;5014338;28;20026;-71
2021/11/30 12:52:18;;;;;;;18.45;3.00;;;6.60;99.90;;;;;;5024957;28;20018;-73
2021/11/30 12:54:50;;;;;;;17.63;2.67;;;6.60;99.90;;;;;;5017557;28;20100;-72
2021/11/30 12:57:39;;;;;;;14.77;2.25;;;6.60;99.90;;;;;;5021542;28;20029;-72
2021/11/30 13:00:22;;;;;;;15.27;2.78;;;6.40;99.90;;;;;;5008497;28;20034;-72
2021/11/30 13:02:50;;;;;;;17.10;3.83;;;6.30;99.90;;;;;;5017060;28;20141;-72
2021/11/30 13:05:18;;;;;;;13.68;2.25;;;6.30;99.90;;;;;;5018896;28;20160;-72
2021/11/30 13:07:49;;;;;;;12.85;1.95;;;6.30;99.90;;;;;;5015669;28;20032;-72
2021/11/30 13:10:33;;;;;;;9.15;1.67;;;6.20;99.90;;;;;;5017194;28;20022;-72